sensor_id;sensor_type;location;lat;lon;timestamp;pressure;altitude;pressure_sealevel;temperature;humidity
32875;BME280;40468;42.128;24.750;2023-03-13T00:00:01;100062.63;;;6.73;42.75
32875;BME280;40468;42.128;24.750;2023-03-13T00:01:37;100044.81;;;6.61;42.82
32875;BME280;40468;42.128;24.750;2023-03-13T00:03:09;100056.72;;;6.68;42.76
32875;BME280;40468;42.128;24.750;2023-03-13T00:04:40;100056.75;;;6.67;42.84
32875;BME280;40468;42.128;24.750;2023-03-13T00:06:13;100052.47;;;6.66;43.05
32875;BME280;40468;42.128;24.750;2023-03-13T00:07:45;100056.88;;;6.62;42.81
32875;BME280;40468;42.128;24.750;2023-03-13T00:09:17;100059.50;;;6.60;42.89
32875;BME280;40468;42.128;24.750;2023-03-13T00:10:49;100049.97;;;6.63;43.00
32875;BME280;40468;42.128;24.750;2023-03-13T00:12:20;100057.75;;;6.63;43.08
32875;BME280;40468;42.128;24.750;2023-03-13T00:13:53;100057.75;;;6.63;43.06
32875;BME280;40468;42.128;24.750;2023-03-13T00:15:24;100061.19;;;6.61;43.02
32875;BME280;40468;42.128;24.750;2023-03-13T00:16:56;100060.38;;;6.59;43.02
32875;BME280;40468;42.128;24.750;2023-03-13T00:18:28;100058.66;;;6.60;43.09
32875;BME280;40468;42.128;24.750;2023-03-13T00:19:59;100062.97;;;6.59;43.08
32875;BME280;40468;42.128;24.750;2023-03-13T00:21:33;99977.22;;;6.05;42.97
32875;BME280;40468;42.128;24.750;2023-03-13T00:23:06;100063.91;;;6.57;43.05
32875;BME280;40468;42.128;24.750;2023-03-13T00:24:38;100056.31;;;6.51;42.99
32875;BME280;40468;42.128;24.750;2023-03-13T00:26:11;100063.09;;;6.55;42.96
32875;BME280;40468;42.128;24.750;2023-03-13T00:27:43;100032.53;;;6.35;42.86
32875;BME280;40468;42.128;24.750;2023-03-13T00:29:15;100053.00;;;6.44;42.90
32875;BME280;40468;42.128;24.750;2023-03-13T00:30:46;100057.16;;;6.51;42.79
32875;BME280;40468;42.128;24.750;2023-03-13T00:32:18;100065.75;;;6.52;42.75
32875;BME280;40468;42.128;24.750;2023-03-13T00:33:52;100033.38;;;6.35;42.75
32875;BME280;40468;42.128;24.750;2023-03-13T00:35:24;100058.09;;;6.47;42.77
32875;BME280;40468;42.128;24.750;2023-03-13T00:36:57;100056.47;;;6.43;42.85
32875;BME280;40468;42.128;24.750;2023-03-13T00:38:29;100045.38;;;6.38;42.84
32875;BME280;40468;42.128;24.750;2023-03-13T00:40:00;100057.31;;;6.45;42.80
32875;BME280;40468;42.128;24.750;2023-03-13T00:41:35;100041.09;;;6.37;42.77
32875;BME280;40468;42.128;24.750;2023-03-13T00:43:07;100056.41;;;6.46;42.87
32875;BME280;40468;42.128;24.750;2023-03-13T00:44:39;100046.91;;;6.47;42.86
32875;BME280;40468;42.128;24.750;2023-03-13T00:46:12;100039.22;;;6.44;42.90
32875;BME280;40468;42.128;24.750;2023-03-13T00:47:44;100040.13;;;6.41;42.80
32875;BME280;40468;42.128;24.750;2023-03-13T00:49:16;100011.16;;;6.27;42.95
32875;BME280;40468;42.128;24.750;2023-03-13T00:50:48;100052.06;;;6.48;42.74
32875;BME280;40468;42.128;24.750;2023-03-13T00:52:20;100023.91;;;6.34;42.74
32875;BME280;40468;42.128;24.750;2023-03-13T00:53:53;100042.63;;;6.46;42.78
32875;BME280;40468;42.128;24.750;2023-03-13T00:55:24;100052.06;;;6.48;42.77
32875;BME280;40468;42.128;24.750;2023-03-13T00:56:55;100050.31;;;6.47;43.02
32875;BME280;40468;42.128;24.750;2023-03-13T00:58:28;100046.94;;;6.45;42.87
32875;BME280;40468;42.128;24.750;2023-03-13T00:59:59;100050.47;;;6.41;42.77
32875;BME280;40468;42.128;24.750;2023-03-13T01:01:32;100043.63;;;6.38;43.09
32875;BME280;40468;42.128;24.750;2023-03-13T01:03:04;100052.28;;;6.37;42.87
32875;BME280;40468;42.128;24.750;2023-03-13T01:04:35;100017.38;;;6.20;43.01
32875;BME280;40468;42.128;24.750;2023-03-13T01:06:09;99979.28;;;5.89;43.11
32875;BME280;40468;42.128;24.750;2023-03-13T01:07:41;100044.78;;;6.27;43.10
32875;BME280;40468;42.128;24.750;2023-03-13T01:09:14;100041.47;;;6.22;43.29
32875;BME280;40468;42.128;24.750;2023-03-13T01:10:46;100047.72;;;6.13;43.15
32875;BME280;40468;42.128;24.750;2023-03-13T01:12:18;100025.72;;;5.93;43.39
32875;BME280;40468;42.128;24.750;2023-03-13T01:13:53;100047.00;;;6.06;43.31
32875;BME280;40468;42.128;24.750;2023-03-13T01:15:25;100036.78;;;6.00;43.43
32875;BME280;40468;42.128;24.750;2023-03-13T01:16:56;100044.50;;;6.02;43.42
32875;BME280;40468;42.128;24.750;2023-03-13T01:18:27;100032.63;;;5.93;43.47
32875;BME280;40468;42.128;24.750;2023-03-13T01:19:58;100042.91;;;5.96;43.56
32875;BME280;40468;42.128;24.750;2023-03-13T01:21:30;100038.69;;;5.90;43.68
32875;BME280;40468;42.128;24.750;2023-03-13T01:23:03;100047.44;;;5.85;43.71
32875;BME280;40468;42.128;24.750;2023-03-13T01:24:34;99980.38;;;5.40;43.92
32875;BME280;40468;42.128;24.750;2023-03-13T01:26:07;100059.63;;;5.78;43.84
32875;BME280;40468;42.128;24.750;2023-03-13T01:27:38;100052.81;;;5.76;43.97
32875;BME280;40468;42.128;24.750;2023-03-13T01:29:10;100055.44;;;5.74;44.02
32875;BME280;40468;42.128;24.750;2023-03-13T01:30:42;100051.97;;;5.74;43.99
32875;BME280;40468;42.128;24.750;2023-03-13T01:32:14;100052.88;;;5.73;43.84
32875;BME280;40468;42.128;24.750;2023-03-13T01:33:47;100053.75;;;5.72;43.96
32875;BME280;40468;42.128;24.750;2023-03-13T01:35:19;100053.00;;;5.66;43.90
32875;BME280;40468;42.128;24.750;2023-03-13T01:36:50;100020.06;;;5.36;44.11
32875;BME280;40468;42.128;24.750;2023-03-13T01:38:24;100062.56;;;5.61;44.04
32875;BME280;40468;42.128;24.750;2023-03-13T01:39:54;100069.47;;;5.62;44.07
32875;BME280;40468;42.128;24.750;2023-03-13T01:41:27;100057.56;;;5.54;44.17
32875;BME280;40468;42.128;24.750;2023-03-13T01:42:59;100051.59;;;5.52;44.15
32875;BME280;40468;42.128;24.750;2023-03-13T01:44:48;100003.28;;;5.13;44.11
32875;BME280;40468;42.128;24.750;2023-03-13T01:46:20;100067.00;;;5.56;44.51
32875;BME280;40468;42.128;24.750;2023-03-13T01:47:54;100071.28;;;5.56;44.33
32875;BME280;40468;42.128;24.750;2023-03-13T01:49:28;100077.41;;;5.53;44.60
32875;BME280;40468;42.128;24.750;2023-03-13T01:51:05;100078.38;;;5.47;44.64
32875;BME280;40468;42.128;24.750;2023-03-13T01:52:37;100075.84;;;5.43;44.71
32875;BME280;40468;42.128;24.750;2023-03-13T01:54:13;100077.69;;;5.38;45.04
32875;BME280;40468;42.128;24.750;2023-03-13T01:55:46;100072.56;;;5.36;45.10
32875;BME280;40468;42.128;24.750;2023-03-13T01:57:20;100076.09;;;5.31;45.16
32875;BME280;40468;42.128;24.750;2023-03-13T01:58:55;100083.97;;;5.24;45.24
32875;BME280;40468;42.128;24.750;2023-03-13T02:00:30;100081.50;;;5.18;45.41
32875;BME280;40468;42.128;24.750;2023-03-13T02:02:04;100059.47;;;5.00;45.52
32875;BME280;40468;42.128;24.750;2023-03-13T02:03:36;100087.59;;;5.14;45.50
32875;BME280;40468;42.128;24.750;2023-03-13T02:05:09;100080.84;;;5.07;45.62
32875;BME280;40468;42.128;24.750;2023-03-13T02:06:44;100028.13;;;4.74;45.35
32875;BME280;40468;42.128;24.750;2023-03-13T02:08:20;100090.22;;;5.13;45.48
32875;BME280;40468;42.128;24.750;2023-03-13T02:09:55;100091.09;;;5.12;45.55
32875;BME280;40468;42.128;24.750;2023-03-13T02:11:34;99977.16;;;4.37;45.59
32875;BME280;40468;42.128;24.750;2023-03-13T02:13:09;100100.59;;;5.08;45.50
32875;BME280;40468;42.128;24.750;2023-03-13T02:14:46;100092.97;;;5.02;45.72
32875;BME280;40468;42.128;24.750;2023-03-13T02:16:20;100099.03;;;5.01;45.66
32875;BME280;40468;42.128;24.750;2023-03-13T02:17:53;100110.13;;;5.05;45.77
32875;BME280;40468;42.128;24.750;2023-03-13T02:19:30;100106.72;;;5.02;45.73
32875;BME280;40468;42.128;24.750;2023-03-13T02:21:12;100114.41;;;5.06;45.74
32875;BME280;40468;42.128;24.750;2023-03-13T02:22:49;100100.78;;;4.99;45.77
32875;BME280;40468;42.128;24.750;2023-03-13T02:24:30;100105.09;;;4.98;45.84
32875;BME280;40468;42.128;24.750;2023-03-13T02:26:05;100114.41;;;5.06;45.82
32875;BME280;40468;42.128;24.750;2023-03-13T02:27:38;100119.63;;;5.04;45.86
32875;BME280;40468;42.128;24.750;2023-03-13T02:29:09;100087.31;;;4.82;45.90
32875;BME280;40468;42.128;24.750;2023-03-13T02:30:49;99991.31;;;4.13;45.73
32875;BME280;40468;42.128;24.750;2023-03-13T02:32:22;100124.84;;;4.99;45.97
32875;BME280;40468;42.128;24.750;2023-03-13T02:33:54;100129.16;;;4.99;46.00
32875;BME280;40468;42.128;24.750;2023-03-13T02:35:29;100127.44;;;4.99;46.16
32875;BME280;40468;42.128;24.750;2023-03-13T02:37:01;100133.47;;;5.00;46.08
32875;BME280;40468;42.128;24.750;2023-03-13T02:38:39;100129.22;;;4.96;46.06
32875;BME280;40468;42.128;24.750;2023-03-13T02:40:15;100130.00;;;5.01;46.12
32875;BME280;40468;42.128;24.750;2023-03-13T02:41:49;100136.06;;;5.00;46.04
32875;BME280;40468;42.128;24.750;2023-03-13T02:43:25;100068.81;;;4.56;45.95
32875;BME280;40468;42.128;24.750;2023-03-13T02:44:58;100140.31;;;5.01;46.02
32875;BME280;40468;42.128;24.750;2023-03-13T02:46:30;100138.69;;;4.97;45.98
32875;BME280;40468;42.128;24.750;2023-03-13T02:48:01;100147.19;;;5.02;46.01
32875;BME280;40468;42.128;24.750;2023-03-13T02:49:32;100155.75;;;5.02;45.93
32875;BME280;40468;42.128;24.750;2023-03-13T02:51:11;100148.13;;;4.96;46.10
32875;BME280;40468;42.128;24.750;2023-03-13T02:52:45;99988.13;;;3.97;46.04
32875;BME280;40468;42.128;24.750;2023-03-13T02:54:22;100157.59;;;4.97;46.06
32875;BME280;40468;42.128;24.750;2023-03-13T02:55:54;100158.50;;;4.95;46.26
32875;BME280;40468;42.128;24.750;2023-03-13T02:57:27;100145.81;;;4.81;46.14
32875;BME280;40468;42.128;24.750;2023-03-13T02:58:59;100159.53;;;4.83;46.11
32875;BME280;40468;42.128;24.750;2023-03-13T03:00:31;100165.59;;;4.81;46.24
32875;BME280;40468;42.128;24.750;2023-03-13T03:02:03;100164.75;;;4.80;46.37
32875;BME280;40468;42.128;24.750;2023-03-13T03:03:35;100160.53;;;4.74;46.46
32875;BME280;40468;42.128;24.750;2023-03-13T03:05:06;100163.16;;;4.71;46.43
32875;BME280;40468;42.128;24.750;2023-03-13T03:06:39;100164.97;;;4.66;46.43
32875;BME280;40468;42.128;24.750;2023-03-13T03:08:10;100168.47;;;4.62;46.66
32875;BME280;40468;42.128;24.750;2023-03-13T03:09:41;100158.34;;;4.50;46.61
32875;BME280;40468;42.128;24.750;2023-03-13T03:11:13;100155.88;;;4.41;46.83
32875;BME280;40468;42.128;24.750;2023-03-13T03:12:45;100183.38;;;4.42;47.14
32875;BME280;40468;42.128;24.750;2023-03-13T03:14:17;100169.81;;;4.27;47.15
32875;BME280;40468;42.128;24.750;2023-03-13T03:15:49;100177.56;;;4.26;47.48
32875;BME280;40468;42.128;24.750;2023-03-13T03:17:21;100187.88;;;4.27;47.48
32875;BME280;40468;42.128;24.750;2023-03-13T03:18:53;100189.63;;;4.24;47.55
32875;BME280;40468;42.128;24.750;2023-03-13T03:20:25;100149.66;;;3.94;47.52
32875;BME280;40468;42.128;24.750;2023-03-13T03:21:57;100190.59;;;4.15;47.76
32875;BME280;40468;42.128;24.750;2023-03-13T03:23:28;100192.38;;;4.12;47.68
32875;BME280;40468;42.128;24.750;2023-03-13T03:24:59;100202.72;;;4.08;47.92
32875;BME280;40468;42.128;24.750;2023-03-13T03:26:31;100206.16;;;4.07;48.07
32875;BME280;40468;42.128;24.750;2023-03-13T03:28:05;100219.88;;;4.08;48.08
32875;BME280;40468;42.128;24.750;2023-03-13T03:29:36;100219.16;;;4.00;47.84
32875;BME280;40468;42.128;24.750;2023-03-13T03:31:10;100191.88;;;3.80;47.98
32875;BME280;40468;42.128;24.750;2023-03-13T03:32:42;100228.59;;;3.96;48.06
32875;BME280;40468;42.128;24.750;2023-03-13T03:34:13;100225.22;;;3.93;48.23
32875;BME280;40468;42.128;24.750;2023-03-13T03:35:44;100243.22;;;3.97;48.08
32875;BME280;40468;42.128;24.750;2023-03-13T03:37:16;100235.44;;;3.99;47.92
32875;BME280;40468;42.128;24.750;2023-03-13T03:38:47;100232.88;;;3.99;48.01
32875;BME280;40468;42.128;24.750;2023-03-13T03:40:19;100228.69;;;3.92;48.13
32875;BME280;40468;42.128;24.750;2023-03-13T03:41:51;100241.53;;;3.95;48.09
32875;BME280;40468;42.128;24.750;2023-03-13T03:43:24;100244.97;;;3.94;48.14
32875;BME280;40468;42.128;24.750;2023-03-13T03:44:56;100224.47;;;3.81;48.08
32875;BME280;40468;42.128;24.750;2023-03-13T03:46:28;100242.47;;;3.87;48.23
32875;BME280;40468;42.128;24.750;2023-03-13T03:48:00;100248.44;;;3.90;48.22
32875;BME280;40468;42.128;24.750;2023-03-13T03:49:32;100251.91;;;3.88;48.15
32875;BME280;40468;42.128;24.750;2023-03-13T03:51:03;100240.84;;;3.79;48.29
32875;BME280;40468;42.128;24.750;2023-03-13T03:52:35;100238.28;;;3.77;48.40
32875;BME280;40468;42.128;24.750;2023-03-13T03:54:06;100243.44;;;3.79;48.51
32875;BME280;40468;42.128;24.750;2023-03-13T03:55:38;100247.72;;;3.75;48.57
32875;BME280;40468;42.128;24.750;2023-03-13T03:57:10;100247.69;;;3.78;48.52
32875;BME280;40468;42.128;24.750;2023-03-13T03:58:43;100241.75;;;3.73;48.42
32875;BME280;40468;42.128;24.750;2023-03-13T04:00:16;100252.06;;;3.72;48.43
32875;BME280;40468;42.128;24.750;2023-03-13T04:01:48;100252.09;;;3.70;48.45
32875;BME280;40468;42.128;24.750;2023-03-13T04:03:19;100249.56;;;3.65;48.52
32875;BME280;40468;42.128;24.750;2023-03-13T04:04:51;100239.28;;;3.62;48.72
32875;BME280;40468;42.128;24.750;2023-03-13T04:06:23;100230.81;;;3.53;48.66
32875;BME280;40468;42.128;24.750;2023-03-13T04:07:55;100255.56;;;3.66;48.72
32875;BME280;40468;42.128;24.750;2023-03-13T04:09:27;100253.06;;;3.58;48.76
32875;BME280;40468;42.128;24.750;2023-03-13T04:10:59;100266.72;;;3.65;48.92
32875;BME280;40468;42.128;24.750;2023-03-13T04:12:31;100268.47;;;3.63;48.83
32875;BME280;40468;42.128;24.750;2023-03-13T04:14:04;100271.09;;;3.57;48.80
32875;BME280;40468;42.128;24.750;2023-03-13T04:15:37;100266.81;;;3.56;48.94
32875;BME280;40468;42.128;24.750;2023-03-13T04:17:08;100275.41;;;3.52;48.93
32875;BME280;40468;42.128;24.750;2023-03-13T04:18:40;100272.91;;;3.46;49.02
32875;BME280;40468;42.128;24.750;2023-03-13T04:20:12;100274.66;;;3.42;49.03
32875;BME280;40468;42.128;24.750;2023-03-13T04:21:44;100269.59;;;3.34;49.15
32875;BME280;40468;42.128;24.750;2023-03-13T04:23:15;100273.91;;;3.29;49.33
32875;BME280;40468;42.128;24.750;2023-03-13T04:24:47;100282.47;;;3.30;49.41
32875;BME280;40468;42.128;24.750;2023-03-13T04:26:19;100253.47;;;3.09;49.48
32875;BME280;40468;42.128;24.750;2023-03-13T04:27:50;100198.00;;;2.70;49.41
32875;BME280;40468;42.128;24.750;2023-03-13T04:29:23;100282.56;;;3.21;49.59
32875;BME280;40468;42.128;24.750;2023-03-13T04:30:54;100283.44;;;3.19;49.76
32875;BME280;40468;42.128;24.750;2023-03-13T04:32:27;100289.44;;;3.18;49.75
32875;BME280;40468;42.128;24.750;2023-03-13T04:33:59;100290.28;;;3.16;50.30
32875;BME280;40468;42.128;24.750;2023-03-13T04:35:31;100286.03;;;3.15;49.98
32875;BME280;40468;42.128;24.750;2023-03-13T04:37:01;100295.44;;;3.16;50.01
32875;BME280;40468;42.128;24.750;2023-03-13T04:38:33;100292.94;;;3.08;50.25
32875;BME280;40468;42.128;24.750;2023-03-13T04:40:06;100264.75;;;2.87;50.07
32875;BME280;40468;42.128;24.750;2023-03-13T04:41:38;100302.41;;;3.05;50.28
32875;BME280;40468;42.128;24.750;2023-03-13T04:43:10;100316.06;;;3.10;50.22
32875;BME280;40468;42.128;24.750;2023-03-13T04:44:43;100287.88;;;2.91;50.26
32875;BME280;40468;42.128;24.750;2023-03-13T04:46:15;100324.69;;;3.06;50.38
32875;BME280;40468;42.128;24.750;2023-03-13T04:47:47;100319.53;;;3.06;50.46
32875;BME280;40468;42.128;24.750;2023-03-13T04:49:19;100316.13;;;3.02;50.64
32875;BME280;40468;42.128;24.750;2023-03-13T04:50:51;100333.25;;;3.06;50.49
32875;BME280;40468;42.128;24.750;2023-03-13T04:52:23;100322.09;;;3.07;50.59
32875;BME280;40468;42.128;24.750;2023-03-13T04:53:55;100316.97;;;3.04;50.72
32875;BME280;40468;42.128;24.750;2023-03-13T04:55:27;100324.66;;;3.09;50.84
32875;BME280;40468;42.128;24.750;2023-03-13T04:56:58;100327.25;;;3.09;50.94
32875;BME280;40468;42.128;24.750;2023-03-13T04:58:30;100322.09;;;3.09;51.02
32875;BME280;40468;42.128;24.750;2023-03-13T05:00:05;100322.97;;;3.08;50.94
32875;BME280;40468;42.128;24.750;2023-03-13T05:01:38;100328.94;;;3.14;51.02
32875;BME280;40468;42.128;24.750;2023-03-13T05:03:10;100296.41;;;2.98;51.00
32875;BME280;40468;42.128;24.750;2023-03-13T05:04:42;100333.16;;;3.22;51.13
32875;BME280;40468;42.128;24.750;2023-03-13T05:06:13;100332.31;;;3.23;51.12
32875;BME280;40468;42.128;24.750;2023-03-13T05:07:45;100344.31;;;3.24;51.04
32875;BME280;40468;42.128;24.750;2023-03-13T05:09:17;100304.09;;;3.06;51.13
32875;BME280;40468;42.128;24.750;2023-03-13T05:10:49;100341.72;;;3.27;50.94
32875;BME280;40468;42.128;24.750;2023-03-13T05:12:21;100333.19;;;3.20;51.13
32875;BME280;40468;42.128;24.750;2023-03-13T05:13:53;100345.97;;;3.31;51.16
32875;BME280;40468;42.128;24.750;2023-03-13T05:15:25;100348.53;;;3.32;51.15
32875;BME280;40468;42.128;24.750;2023-03-13T05:16:57;100315.19;;;3.12;51.05
32875;BME280;40468;42.128;24.750;2023-03-13T05:18:29;100352.81;;;3.33;51.20
32875;BME280;40468;42.128;24.750;2023-03-13T05:20:00;100353.72;;;3.26;51.24
32875;BME280;40468;42.128;24.750;2023-03-13T05:21:32;100363.97;;;3.32;51.00
32875;BME280;40468;42.128;24.750;2023-03-13T05:23:04;100360.56;;;3.32;51.19
32875;BME280;40468;42.128;24.750;2023-03-13T05:24:34;100350.31;;;3.24;51.29
32875;BME280;40468;42.128;24.750;2023-03-13T05:26:06;100363.16;;;3.29;51.37
32875;BME280;40468;42.128;24.750;2023-03-13T05:27:38;100364.00;;;3.29;51.22
32875;BME280;40468;42.128;24.750;2023-03-13T05:29:10;100317.84;;;3.02;51.09
32875;BME280;40468;42.128;24.750;2023-03-13T05:30:43;100343.50;;;3.17;51.12
32875;BME280;40468;42.128;24.750;2023-03-13T05:32:15;100369.09;;;3.34;51.28
32875;BME280;40468;42.128;24.750;2023-03-13T05:33:47;100373.41;;;3.35;51.16
32875;BME280;40468;42.128;24.750;2023-03-13T05:35:18;100374.22;;;3.37;51.11
32875;BME280;40468;42.128;24.750;2023-03-13T05:36:51;100314.41;;;3.06;51.19
32875;BME280;40468;42.128;24.750;2023-03-13T05:38:22;100370.78;;;3.41;51.10
32875;BME280;40468;42.128;24.750;2023-03-13T05:39:53;100369.94;;;3.39;51.05
32875;BME280;40468;42.128;24.750;2023-03-13T05:41:25;100380.22;;;3.44;50.98
32875;BME280;40468;42.128;24.750;2023-03-13T05:42:57;100369.13;;;3.35;51.05
32875;BME280;40468;42.128;24.750;2023-03-13T05:44:29;100289.66;;;2.85;51.20
32875;BME280;40468;42.128;24.750;2023-03-13T05:46:02;100384.50;;;3.40;51.33
32875;BME280;40468;42.128;24.750;2023-03-13T05:47:34;100389.66;;;3.40;51.36
32875;BME280;40468;42.128;24.750;2023-03-13T05:49:05;100272.59;;;2.65;51.32
32875;BME280;40468;42.128;24.750;2023-03-13T05:50:37;100389.66;;;3.41;51.20
32875;BME280;40468;42.128;24.750;2023-03-13T05:52:09;100385.41;;;3.37;51.37
32875;BME280;40468;42.128;24.750;2023-03-13T05:53:41;100388.75;;;3.46;51.16
32875;BME280;40468;42.128;24.750;2023-03-13T05:55:13;100399.91;;;3.48;51.25
32875;BME280;40468;42.128;24.750;2023-03-13T05:56:44;100401.63;;;3.50;51.07
32875;BME280;40468;42.128;24.750;2023-03-13T05:58:18;100398.19;;;3.53;51.11
32875;BME280;40468;42.128;24.750;2023-03-13T05:59:49;100399.84;;;3.57;50.93
32875;BME280;40468;42.128;24.750;2023-03-13T06:01:23;100401.56;;;3.59;51.00
32875;BME280;40468;42.128;24.750;2023-03-13T06:02:54;100405.00;;;3.61;50.91
32875;BME280;40468;42.128;24.750;2023-03-13T06:04:26;100401.53;;;3.64;50.89
32875;BME280;40468;42.128;24.750;2023-03-13T06:05:58;100402.38;;;3.68;50.90
32875;BME280;40468;42.128;24.750;2023-03-13T06:07:30;100322.84;;;3.25;50.76
32875;BME280;40468;42.128;24.750;2023-03-13T06:09:02;100405.72;;;3.77;50.79
32875;BME280;40468;42.128;24.750;2023-03-13T06:10:35;100397.09;;;3.78;50.72
32875;BME280;40468;42.128;24.750;2023-03-13T06:12:07;100391.13;;;3.78;50.54
32875;BME280;40468;42.128;24.750;2023-03-13T06:13:39;100403.88;;;3.95;50.45
32875;BME280;40468;42.128;24.750;2023-03-13T06:15:11;100410.66;;;4.02;50.37
32875;BME280;40468;42.128;24.750;2023-03-13T06:16:44;100410.59;;;4.11;50.09
32875;BME280;40468;42.128;24.750;2023-03-13T06:18:16;100401.06;;;4.19;50.07
32875;BME280;40468;42.128;24.750;2023-03-13T06:19:48;100400.97;;;4.30;49.94
32875;BME280;40468;42.128;24.750;2023-03-13T06:21:20;100368.41;;;4.21;49.83
32875;BME280;40468;42.128;24.750;2023-03-13T06:22:52;100400.78;;;4.50;49.72
32875;BME280;40468;42.128;24.750;2023-03-13T06:24:24;100400.63;;;4.62;49.37
32875;BME280;40468;42.128;24.750;2023-03-13T06:25:55;100415.84;;;4.84;49.23
32875;BME280;40468;42.128;24.750;2023-03-13T06:27:27;100405.41;;;4.93;48.92
32875;BME280;40468;42.128;24.750;2023-03-13T06:28:59;100393.25;;;5.04;48.79
32875;BME280;40468;42.128;24.750;2023-03-13T06:30:31;100398.03;;;5.32;48.78
32875;BME280;40468;42.128;24.750;2023-03-13T06:32:05;100410.41;;;5.67;48.58
32875;BME280;40468;42.128;24.750;2023-03-13T06:33:37;100420.03;;;6.14;48.39
32875;BME280;40468;42.128;24.750;2023-03-13T06:35:09;100403.81;;;6.54;47.84
32875;BME280;40468;42.128;24.750;2023-03-13T06:36:44;100418.91;;;7.18;47.21
32875;BME280;40468;42.128;24.750;2023-03-13T06:38:16;100400.28;;;7.39;45.96
32875;BME280;40468;42.128;24.750;2023-03-13T06:39:48;100413.78;;;7.53;45.04
32875;BME280;40468;42.128;24.750;2023-03-13T06:41:20;100413.16;;;7.45;44.23
32875;BME280;40468;42.128;24.750;2023-03-13T06:42:52;100408.44;;;7.61;44.32
32875;BME280;40468;42.128;24.750;2023-03-13T06:44:24;100407.31;;;8.07;44.39
32875;BME280;40468;42.128;24.750;2023-03-13T06:46:01;100399.78;;;8.65;43.78
32875;BME280;40468;42.128;24.750;2023-03-13T06:47:34;100403.88;;;9.33;43.18
32875;BME280;40468;42.128;24.750;2023-03-13T06:49:06;100406.97;;;9.99;42.39
32875;BME280;40468;42.128;24.750;2023-03-13T06:50:39;100405.56;;;10.42;40.49
32875;BME280;40468;42.128;24.750;2023-03-13T06:52:11;100386.31;;;10.71;39.90
32875;BME280;40468;42.128;24.750;2023-03-13T06:53:43;100402.72;;;11.20;38.79
32875;BME280;40468;42.128;24.750;2023-03-13T06:55:15;100406.88;;;11.48;37.94
32875;BME280;40468;42.128;24.750;2023-03-13T06:56:46;100408.19;;;11.80;37.80
32875;BME280;40468;42.128;24.750;2023-03-13T06:58:18;100409.50;;;12.12;36.95
32875;BME280;40468;42.128;24.750;2023-03-13T06:59:50;100404.88;;;12.39;36.12
32875;BME280;40468;42.128;24.750;2023-03-13T07:01:22;100402.75;;;12.68;36.13
32875;BME280;40468;42.128;24.750;2023-03-13T07:02:55;100367.75;;;12.72;35.25
32875;BME280;40468;42.128;24.750;2023-03-13T07:04:27;100401.69;;;13.11;34.97
32875;BME280;40468;42.128;24.750;2023-03-13T07:05:59;100398.22;;;13.49;35.15
32875;BME280;40468;42.128;24.750;2023-03-13T07:07:31;100401.50;;;13.71;34.37
32875;BME280;40468;42.128;24.750;2023-03-13T07:09:03;100319.69;;;13.12;33.94
32875;BME280;40468;42.128;24.750;2023-03-13T07:10:35;100387.88;;;13.28;34.22
32875;BME280;40468;42.128;24.750;2023-03-13T07:12:07;100395.31;;;13.17;33.87
32875;BME280;40468;42.128;24.750;2023-03-13T07:13:39;100387.41;;;13.00;34.15
32875;BME280;40468;42.128;24.750;2023-03-13T07:15:11;100395.84;;;13.25;34.17
32875;BME280;40468;42.128;24.750;2023-03-13T07:16:43;100388.34;;;13.36;34.01
32875;BME280;40468;42.128;24.750;2023-03-13T07:18:17;100391.94;;;13.53;33.71
32875;BME280;40468;42.128;24.750;2023-03-13T07:19:49;100386.69;;;13.53;33.35
32875;BME280;40468;42.128;24.750;2023-03-13T07:21:21;100395.78;;;13.63;32.80
32875;BME280;40468;42.128;24.750;2023-03-13T07:22:53;100397.72;;;13.59;32.62
32875;BME280;40468;42.128;24.750;2023-03-13T07:24:24;100397.25;;;13.69;32.57
32875;BME280;40468;42.128;24.750;2023-03-13T07:25:58;100390.38;;;14.02;32.22
32875;BME280;40468;42.128;24.750;2023-03-13T07:27:29;100397.78;;;14.29;32.13
32875;BME280;40468;42.128;24.750;2023-03-13T07:29:01;100390.28;;;14.56;31.87
32875;BME280;40468;42.128;24.750;2023-03-13T07:30:33;100393.44;;;14.63;30.81
32875;BME280;40468;42.128;24.750;2023-03-13T07:32:05;100384.38;;;14.52;31.05
32875;BME280;40468;42.128;24.750;2023-03-13T07:33:39;100399.81;;;14.90;31.26
32875;BME280;40468;42.128;24.750;2023-03-13T07:35:10;100391.38;;;15.17;31.36
32875;BME280;40468;42.128;24.750;2023-03-13T07:36:42;100373.78;;;15.35;30.55
32875;BME280;40468;42.128;24.750;2023-03-13T07:38:14;100397.28;;;15.84;30.43
32875;BME280;40468;42.128;24.750;2023-03-13T07:39:46;100394.53;;;16.01;29.53
32875;BME280;40468;42.128;24.750;2023-03-13T07:41:18;100392.56;;;16.05;29.07
32875;BME280;40468;42.128;24.750;2023-03-13T07:42:50;100385.13;;;15.83;29.12
32875;BME280;40468;42.128;24.750;2023-03-13T07:44:22;100320.13;;;15.24;29.17
32875;BME280;40468;42.128;24.750;2023-03-13T07:45:55;100407.72;;;15.54;28.97
32875;BME280;40468;42.128;24.750;2023-03-13T07:47:27;100391.66;;;15.44;29.07
32875;BME280;40468;42.128;24.750;2023-03-13T07:49:00;100381.94;;;15.30;29.01
32875;BME280;40468;42.128;24.750;2023-03-13T07:50:32;100389.53;;;15.35;29.05
32875;BME280;40468;42.128;24.750;2023-03-13T07:52:04;100384.69;;;15.43;29.27
32875;BME280;40468;42.128;24.750;2023-03-13T07:53:36;100386.00;;;15.36;29.01
32875;BME280;40468;42.128;24.750;2023-03-13T07:55:08;100375.22;;;15.24;29.31
32875;BME280;40468;42.128;24.750;2023-03-13T07:56:40;100390.72;;;15.45;29.31
32875;BME280;40468;42.128;24.750;2023-03-13T07:58:11;100390.19;;;15.54;29.37
32875;BME280;40468;42.128;24.750;2023-03-13T07:59:42;100388.00;;;15.62;29.17
32875;BME280;40468;42.128;24.750;2023-03-13T08:01:15;100389.34;;;15.69;29.03